sensor_id;sensor_type;location;lat;lon;timestamp;temperature;humidity
54680;DHT22;40578;53.178;5.846;2023-04-03T00:02:07;2.50;99.90
54680;DHT22;40578;53.178;5.846;2023-04-03T00:04:33;2.40;99.90
54680;DHT22;40578;53.178;5.846;2023-04-03T00:06:59;2.40;99.90
54680;DHT22;40578;53.178;5.846;2023-04-03T00:09:24;2.40;99.90
54680;DHT22;40578;53.178;5.846;2023-04-03T00:11:50;2.30;99.90
54680;DHT22;40578;53.178;5.846;2023-04-03T00:14:16;2.30;99.90
54680;DHT22;40578;53.178;5.846;2023-04-03T00:16:41;2.20;99.90
54680;DHT22;40578;53.178;5.846;2023-04-03T00:19:07;2.30;99.90
54680;DHT22;40578;53.178;5.846;2023-04-03T00:21:33;2.20;99.90
54680;DHT22;40578;53.178;5.846;2023-04-03T00:23:59;2.20;99.90
54680;DHT22;40578;53.178;5.846;2023-04-03T00:26:24;4.40;99.90
54680;DHT22;40578;53.178;5.846;2023-04-03T00:28:50;2.50;99.90
54680;DHT22;40578;53.178;5.846;2023-04-03T00:31:16;2.20;99.90
54680;DHT22;40578;53.178;5.846;2023-04-03T00:33:42;2.20;99.90
54680;DHT22;40578;53.178;5.846;2023-04-03T00:36:09;2.10;99.90
54680;DHT22;40578;53.178;5.846;2023-04-03T00:38:36;2.10;99.90
54680;DHT22;40578;53.178;5.846;2023-04-03T00:41:02;2.10;99.90
54680;DHT22;40578;53.178;5.846;2023-04-03T00:43:28;2.60;99.90
54680;DHT22;40578;53.178;5.846;2023-04-03T00:45:55;2.00;99.90
54680;DHT22;40578;53.178;5.846;2023-04-03T00:48:29;2.00;99.90
54680;DHT22;40578;53.178;5.846;2023-04-03T00:50:56;2.00;99.90
54680;DHT22;40578;53.178;5.846;2023-04-03T00:53:25;2.00;99.90
54680;DHT22;40578;53.178;5.846;2023-04-03T00:55:54;2.00;99.90
54680;DHT22;40578;53.178;5.846;2023-04-03T00:58:25;2.00;99.90
54680;DHT22;40578;53.178;5.846;2023-04-03T01:00:55;1.90;99.90
54680;DHT22;40578;53.178;5.846;2023-04-03T01:03:23;1.90;99.90
54680;DHT22;40578;53.178;5.846;2023-04-03T01:05:49;1.90;99.90
54680;DHT22;40578;53.178;5.846;2023-04-03T01:08:15;1.90;99.90
54680;DHT22;40578;53.178;5.846;2023-04-03T01:10:41;1.80;99.90
54680;DHT22;40578;53.178;5.846;2023-04-03T01:13:25;1.70;99.90
54680;DHT22;40578;53.178;5.846;2023-04-03T01:15:52;1.70;99.90
54680;DHT22;40578;53.178;5.846;2023-04-03T01:18:17;1.70;99.90
54680;DHT22;40578;53.178;5.846;2023-04-03T01:24:14;1.70;99.90
54680;DHT22;40578;53.178;5.846;2023-04-03T01:26:43;1.60;99.90
54680;DHT22;40578;53.178;5.846;2023-04-03T01:29:10;2.70;99.90
54680;DHT22;40578;53.178;5.846;2023-04-03T01:31:57;1.60;99.90
54680;DHT22;40578;53.178;5.846;2023-04-03T01:34:23;1.60;99.90
54680;DHT22;40578;53.178;5.846;2023-04-03T01:36:48;1.60;99.90
54680;DHT22;40578;53.178;5.846;2023-04-03T01:39:14;1.60;99.90
54680;DHT22;40578;53.178;5.846;2023-04-03T01:41:40;1.60;99.90
54680;DHT22;40578;53.178;5.846;2023-04-03T01:44:05;1.60;99.90
54680;DHT22;40578;53.178;5.846;2023-04-03T01:46:31;1.50;99.90
54680;DHT22;40578;53.178;5.846;2023-04-03T01:48:57;1.50;99.90
54680;DHT22;40578;53.178;5.846;2023-04-03T01:51:23;1.50;99.90
54680;DHT22;40578;53.178;5.846;2023-04-03T01:53:48;1.50;99.90
54680;DHT22;40578;53.178;5.846;2023-04-03T01:56:14;1.50;99.90
54680;DHT22;40578;53.178;5.846;2023-04-03T01:58:40;1.50;99.90
54680;DHT22;40578;53.178;5.846;2023-04-03T02:01:06;1.40;99.90
54680;DHT22;40578;53.178;5.846;2023-04-03T02:03:32;1.40;99.90
54680;DHT22;40578;53.178;5.846;2023-04-03T02:05:58;1.40;99.90
54680;DHT22;40578;53.178;5.846;2023-04-03T02:08:23;1.40;99.90
54680;DHT22;40578;53.178;5.846;2023-04-03T02:10:50;1.30;99.90
54680;DHT22;40578;53.178;5.846;2023-04-03T02:13:16;1.40;99.90
54680;DHT22;40578;53.178;5.846;2023-04-03T02:15:42;1.30;99.90
54680;DHT22;40578;53.178;5.846;2023-04-03T02:18:08;1.30;99.90
54680;DHT22;40578;53.178;5.846;2023-04-03T02:20:34;1.20;99.90
54680;DHT22;40578;53.178;5.846;2023-04-03T02:23:00;1.20;99.90
54680;DHT22;40578;53.178;5.846;2023-04-03T02:25:26;1.10;99.90
54680;DHT22;40578;53.178;5.846;2023-04-03T02:27:52;1.10;99.90
54680;DHT22;40578;53.178;5.846;2023-04-03T02:30:18;1.10;99.90
54680;DHT22;40578;53.178;5.846;2023-04-03T02:32:44;1.10;99.90
54680;DHT22;40578;53.178;5.846;2023-04-03T02:35:10;1.10;99.90
54680;DHT22;40578;53.178;5.846;2023-04-03T02:37:37;1.10;99.90
54680;DHT22;40578;53.178;5.846;2023-04-03T02:40:03;1.10;99.90
54680;DHT22;40578;53.178;5.846;2023-04-03T02:42:29;1.10;99.90
54680;DHT22;40578;53.178;5.846;2023-04-03T02:44:54;1.00;99.90
54680;DHT22;40578;53.178;5.846;2023-04-03T02:47:20;1.00;99.90
54680;DHT22;40578;53.178;5.846;2023-04-03T02:49:46;1.00;99.90
54680;DHT22;40578;53.178;5.846;2023-04-03T02:52:15;2.10;99.90
54680;DHT22;40578;53.178;5.846;2023-04-03T02:54:41;0.90;99.90
54680;DHT22;40578;53.178;5.846;2023-04-03T02:57:07;0.80;99.90
54680;DHT22;40578;53.178;5.846;2023-04-03T02:59:37;0.90;99.90
54680;DHT22;40578;53.178;5.846;2023-04-03T03:02:07;0.90;99.90
54680;DHT22;40578;53.178;5.846;2023-04-03T03:04:33;0.80;99.90
54680;DHT22;40578;53.178;5.846;2023-04-03T03:06:58;0.80;99.90
54680;DHT22;40578;53.178;5.846;2023-04-03T03:09:24;1.00;99.90
54680;DHT22;40578;53.178;5.846;2023-04-03T03:11:53;0.80;99.90
54680;DHT22;40578;53.178;5.846;2023-04-03T03:14:18;1.20;99.90
54680;DHT22;40578;53.178;5.846;2023-04-03T03:16:44;0.70;99.90
54680;DHT22;40578;53.178;5.846;2023-04-03T03:19:10;0.70;99.90
54680;DHT22;40578;53.178;5.846;2023-04-03T03:21:36;0.70;99.90
54680;DHT22;40578;53.178;5.846;2023-04-03T03:24:02;0.70;99.90
54680;DHT22;40578;53.178;5.846;2023-04-03T03:26:27;0.70;99.90
54680;DHT22;40578;53.178;5.846;2023-04-03T03:28:53;0.70;99.90
54680;DHT22;40578;53.178;5.846;2023-04-03T03:31:19;0.70;99.90
54680;DHT22;40578;53.178;5.846;2023-04-03T03:33:45;0.70;99.90
54680;DHT22;40578;53.178;5.846;2023-04-03T03:36:10;0.70;99.90
54680;DHT22;40578;53.178;5.846;2023-04-03T03:38:36;0.60;99.90
54680;DHT22;40578;53.178;5.846;2023-04-03T03:41:02;0.60;99.90
54680;DHT22;40578;53.178;5.846;2023-04-03T03:43:28;0.50;99.90
54680;DHT22;40578;53.178;5.846;2023-04-03T03:45:54;0.50;99.90
54680;DHT22;40578;53.178;5.846;2023-04-03T03:48:21;0.50;99.90
54680;DHT22;40578;53.178;5.846;2023-04-03T03:50:46;0.50;99.90
54680;DHT22;40578;53.178;5.846;2023-04-03T03:53:13;0.50;99.90
54680;DHT22;40578;53.178;5.846;2023-04-03T03:55:39;0.50;99.90
54680;DHT22;40578;53.178;5.846;2023-04-03T03:58:04;1.00;99.90
54680;DHT22;40578;53.178;5.846;2023-04-03T04:00:30;0.40;99.90
54680;DHT22;40578;53.178;5.846;2023-04-03T04:02:56;0.40;99.90
54680;DHT22;40578;53.178;5.846;2023-04-03T04:05:22;0.40;99.90
54680;DHT22;40578;53.178;5.846;2023-04-03T04:07:47;0.40;99.90
54680;DHT22;40578;53.178;5.846;2023-04-03T04:10:13;2.30;99.90
54680;DHT22;40578;53.178;5.846;2023-04-03T04:12:39;2.60;99.90
54680;DHT22;40578;53.178;5.846;2023-04-03T04:15:05;0.30;99.90
54680;DHT22;40578;53.178;5.846;2023-04-03T04:17:31;0.00;99.90
54680;DHT22;40578;53.178;5.846;2023-04-03T04:19:56;0.20;99.90
54680;DHT22;40578;53.178;5.846;2023-04-03T04:22:22;0.20;99.90
54680;DHT22;40578;53.178;5.846;2023-04-03T04:24:47;0.10;99.90
54680;DHT22;40578;53.178;5.846;2023-04-03T04:27:13;0.10;99.90
54680;DHT22;40578;53.178;5.846;2023-04-03T04:29:39;0.00;99.90
54680;DHT22;40578;53.178;5.846;2023-04-03T04:32:05;0.10;99.90
54680;DHT22;40578;53.178;5.846;2023-04-03T04:34:31;0.40;99.90
54680;DHT22;40578;53.178;5.846;2023-04-03T04:36:57;0.00;99.90
54680;DHT22;40578;53.178;5.846;2023-04-03T04:39:22;0.00;99.90
54680;DHT22;40578;53.178;5.846;2023-04-03T04:41:48;0.00;99.90
54680;DHT22;40578;53.178;5.846;2023-04-03T04:44:13;-0.10;99.90
54680;DHT22;40578;53.178;5.846;2023-04-03T04:46:40;-0.10;99.90
54680;DHT22;40578;53.178;5.846;2023-04-03T04:49:05;0.00;99.90
54680;DHT22;40578;53.178;5.846;2023-04-03T04:51:31;0.00;99.90
54680;DHT22;40578;53.178;5.846;2023-04-03T04:53:56;0.10;99.90
54680;DHT22;40578;53.178;5.846;2023-04-03T04:56:22;0.00;99.90
54680;DHT22;40578;53.178;5.846;2023-04-03T04:58:48;0.00;99.90
54680;DHT22;40578;53.178;5.846;2023-04-03T05:01:13;0.20;99.90
54680;DHT22;40578;53.178;5.846;2023-04-03T05:03:39;0.00;99.90
54680;DHT22;40578;53.178;5.846;2023-04-03T05:06:05;0.00;99.90
54680;DHT22;40578;53.178;5.846;2023-04-03T05:08:31;-0.30;99.90
54680;DHT22;40578;53.178;5.846;2023-04-03T05:10:57;0.10;99.90
54680;DHT22;40578;53.178;5.846;2023-04-03T05:13:22;0.00;99.90
54680;DHT22;40578;53.178;5.846;2023-04-03T05:15:48;0.00;99.90
54680;DHT22;40578;53.178;5.846;2023-04-03T05:18:14;0.00;99.90
54680;DHT22;40578;53.178;5.846;2023-04-03T05:20:39;-0.10;99.90
54680;DHT22;40578;53.178;5.846;2023-04-03T05:23:05;-0.10;99.90
54680;DHT22;40578;53.178;5.846;2023-04-03T05:25:31;-0.20;99.90
54680;DHT22;40578;53.178;5.846;2023-04-03T05:27:57;-0.20;99.90
54680;DHT22;40578;53.178;5.846;2023-04-03T05:30:23;-0.30;99.90
54680;DHT22;40578;53.178;5.846;2023-04-03T05:32:48;-0.30;99.90
54680;DHT22;40578;53.178;5.846;2023-04-03T05:35:15;-0.30;99.90
54680;DHT22;40578;53.178;5.846;2023-04-03T05:37:40;-0.30;99.90
54680;DHT22;40578;53.178;5.846;2023-04-03T05:40:07;-0.30;99.90
54680;DHT22;40578;53.178;5.846;2023-04-03T05:42:33;-0.30;99.90
54680;DHT22;40578;53.178;5.846;2023-04-03T05:44:58;0.50;99.90
54680;DHT22;40578;53.178;5.846;2023-04-03T05:47:24;-0.60;99.90
54680;DHT22;40578;53.178;5.846;2023-04-03T05:49:49;-0.20;99.90
54680;DHT22;40578;53.178;5.846;2023-04-03T05:52:26;-0.20;99.90
54680;DHT22;40578;53.178;5.846;2023-04-03T05:54:52;-0.10;99.90
54680;DHT22;40578;53.178;5.846;2023-04-03T05:57:18;0.30;99.90
54680;DHT22;40578;53.178;5.846;2023-04-03T05:59:45;0.00;99.90
54680;DHT22;40578;53.178;5.846;2023-04-03T06:02:13;0.00;99.90
54680;DHT22;40578;53.178;5.846;2023-04-03T06:04:40;2.10;99.90
54680;DHT22;40578;53.178;5.846;2023-04-03T06:07:06;0.10;99.90
54680;DHT22;40578;53.178;5.846;2023-04-03T06:09:33;0.20;99.90
54680;DHT22;40578;53.178;5.846;2023-04-03T06:12:00;0.20;99.90
54680;DHT22;40578;53.178;5.846;2023-04-03T06:14:26;0.30;99.90
54680;DHT22;40578;53.178;5.846;2023-04-03T06:16:52;0.30;99.90
54680;DHT22;40578;53.178;5.846;2023-04-03T06:19:18;0.50;99.90
54680;DHT22;40578;53.178;5.846;2023-04-03T06:21:44;0.50;99.90
54680;DHT22;40578;53.178;5.846;2023-04-03T06:24:13;0.60;99.90
54680;DHT22;40578;53.178;5.846;2023-04-03T06:26:39;0.70;99.90
54680;DHT22;40578;53.178;5.846;2023-04-03T06:29:05;0.80;99.90
54680;DHT22;40578;53.178;5.846;2023-04-03T06:31:31;0.90;99.90
54680;DHT22;40578;53.178;5.846;2023-04-03T06:33:56;0.90;99.90
54680;DHT22;40578;53.178;5.846;2023-04-03T06:36:22;1.00;99.90
54680;DHT22;40578;53.178;5.846;2023-04-03T06:38:48;1.10;99.90
54680;DHT22;40578;53.178;5.846;2023-04-03T06:41:14;1.10;99.90
54680;DHT22;40578;53.178;5.846;2023-04-03T06:43:42;1.30;99.90
54680;DHT22;40578;53.178;5.846;2023-04-03T06:46:13;1.30;99.90
54680;DHT22;40578;53.178;5.846;2023-04-03T06:48:39;1.50;99.90
54680;DHT22;40578;53.178;5.846;2023-04-03T06:51:05;1.50;99.90
54680;DHT22;40578;53.178;5.846;2023-04-03T06:53:30;1.60;99.90
54680;DHT22;40578;53.178;5.846;2023-04-03T06:55:56;1.60;99.90
54680;DHT22;40578;53.178;5.846;2023-04-03T06:58:22;1.70;99.90
54680;DHT22;40578;53.178;5.846;2023-04-03T07:00:47;1.70;99.90
54680;DHT22;40578;53.178;5.846;2023-04-03T07:03:13;1.80;99.90
54680;DHT22;40578;53.178;5.846;2023-04-03T07:05:39;1.80;99.90
54680;DHT22;40578;53.178;5.846;2023-04-03T07:08:04;1.90;99.90
54680;DHT22;40578;53.178;5.846;2023-04-03T07:10:30;2.00;99.90
54680;DHT22;40578;53.178;5.846;2023-04-03T07:12:56;2.00;99.90
54680;DHT22;40578;53.178;5.846;2023-04-03T07:15:21;2.10;99.90
54680;DHT22;40578;53.178;5.846;2023-04-03T07:17:47;2.10;99.90
54680;DHT22;40578;53.178;5.846;2023-04-03T07:20:13;3.60;99.90
54680;DHT22;40578;53.178;5.846;2023-04-03T07:22:38;2.60;99.90
54680;DHT22;40578;53.178;5.846;2023-04-03T07:25:04;2.30;99.90
54680;DHT22;40578;53.178;5.846;2023-04-03T07:27:32;2.30;99.90
54680;DHT22;40578;53.178;5.846;2023-04-03T07:29:58;2.30;99.90
54680;DHT22;40578;53.178;5.846;2023-04-03T07:32:24;2.40;99.90
54680;DHT22;40578;53.178;5.846;2023-04-03T07:34:50;3.20;99.90
54680;DHT22;40578;53.178;5.846;2023-04-03T07:37:16;2.50;99.90
54680;DHT22;40578;53.178;5.846;2023-04-03T07:39:46;2.60;99.90
54680;DHT22;40578;53.178;5.846;2023-04-03T07:42:12;2.70;99.90
54680;DHT22;40578;53.178;5.846;2023-04-03T07:44:38;2.80;99.90
54680;DHT22;40578;53.178;5.846;2023-04-03T07:47:03;2.90;99.90
54680;DHT22;40578;53.178;5.846;2023-04-03T07:49:29;2.90;99.90
54680;DHT22;40578;53.178;5.846;2023-04-03T07:51:55;3.00;99.90
54680;DHT22;40578;53.178;5.846;2023-04-03T07:54:20;3.00;99.90
54680;DHT22;40578;53.178;5.846;2023-04-03T07:56:46;3.10;99.90
54680;DHT22;40578;53.178;5.846;2023-04-03T07:59:12;3.70;99.90
54680;DHT22;40578;53.178;5.846;2023-04-03T08:01:37;3.20;99.90
54680;DHT22;40578;53.178;5.846;2023-04-03T08:04:03;3.30;99.90
54680;DHT22;40578;53.178;5.846;2023-04-03T08:06:30;3.40;99.90
54680;DHT22;40578;53.178;5.846;2023-04-03T08:08:57;3.40;99.90
54680;DHT22;40578;53.178;5.846;2023-04-03T08:11:23;3.50;99.90
54680;DHT22;40578;53.178;5.846;2023-04-03T08:13:51;3.60;99.90
54680;DHT22;40578;53.178;5.846;2023-04-03T08:16:19;3.70;99.90
54680;DHT22;40578;53.178;5.846;2023-04-03T08:18:46;3.70;99.90
54680;DHT22;40578;53.178;5.846;2023-04-03T08:21:12;3.80;99.90
54680;DHT22;40578;53.178;5.846;2023-04-03T08:23:39;3.80;99.90
54680;DHT22;40578;53.178;5.846;2023-04-03T08:26:13;4.70;99.90
54680;DHT22;40578;53.178;5.846;2023-04-03T08:28:39;3.90;99.90
54680;DHT22;40578;53.178;5.846;2023-04-03T08:31:07;4.00;99.90
54680;DHT22;40578;53.178;5.846;2023-04-03T08:33:34;4.00;99.90
54680;DHT22;40578;53.178;5.846;2023-04-03T08:36:05;4.10;99.90
54680;DHT22;40578;53.178;5.846;2023-04-03T08:38:31;4.20;99.90
54680;DHT22;40578;53.178;5.846;2023-04-03T08:45:57;4.30;99.90
54680;DHT22;40578;53.178;5.846;2023-04-03T08:48:35;4.40;99.90
54680;DHT22;40578;53.178;5.846;2023-04-03T08:51:04;5.30;99.90
54680;DHT22;40578;53.178;5.846;2023-04-03T08:53:39;4.60;99.90
54680;DHT22;40578;53.178;5.846;2023-04-03T08:56:09;6.10;99.90
54680;DHT22;40578;53.178;5.846;2023-04-03T08:58:46;4.90;99.90
54680;DHT22;40578;53.178;5.846;2023-04-03T09:01:27;4.80;99.90
54680;DHT22;40578;53.178;5.846;2023-04-03T09:03:54;5.00;99.90
54680;DHT22;40578;53.178;5.846;2023-04-03T09:06:29;5.20;99.90
54680;DHT22;40578;53.178;5.846;2023-04-03T09:14:39;5.70;99.90
54680;DHT22;40578;53.178;5.846;2023-04-03T09:17:15;5.50;99.90
54680;DHT22;40578;53.178;5.846;2023-04-03T09:19:49;5.50;99.90
54680;DHT22;40578;53.178;5.846;2023-04-03T09:24:45;6.30;99.90
54680;DHT22;40578;53.178;5.846;2023-04-03T09:27:12;7.60;99.90
54680;DHT22;40578;53.178;5.846;2023-04-03T09:29:39;6.10;99.90
54680;DHT22;40578;53.178;5.846;2023-04-03T09:34:49;5.60;99.90
54680;DHT22;40578;53.178;5.846;2023-04-03T09:37:36;5.70;99.90
54680;DHT22;40578;53.178;5.846;2023-04-03T09:40:04;5.80;99.90
54680;DHT22;40578;53.178;5.846;2023-04-03T09:42:30;5.80;99.90
54680;DHT22;40578;53.178;5.846;2023-04-03T09:44:58;5.90;99.90
54680;DHT22;40578;53.178;5.846;2023-04-03T09:47:25;5.90;99.90
54680;DHT22;40578;53.178;5.846;2023-04-03T09:49:52;5.90;99.90
54680;DHT22;40578;53.178;5.846;2023-04-03T09:52:34;5.90;99.90
54680;DHT22;40578;53.178;5.846;2023-04-03T09:55:06;5.90;99.90
54680;DHT22;40578;53.178;5.846;2023-04-03T09:57:32;6.00;99.90
54680;DHT22;40578;53.178;5.846;2023-04-03T09:59:59;6.30;99.90
54680;DHT22;40578;53.178;5.846;2023-04-03T10:02:30;6.10;99.90
54680;DHT22;40578;53.178;5.846;2023-04-03T10:04:57;6.20;99.90
54680;DHT22;40578;53.178;5.846;2023-04-03T10:07:33;6.30;99.90
54680;DHT22;40578;53.178;5.846;2023-04-03T10:12:39;6.40;99.90
54680;DHT22;40578;53.178;5.846;2023-04-03T10:15:10;6.40;99.90
54680;DHT22;40578;53.178;5.846;2023-04-03T10:17:42;6.40;99.90
54680;DHT22;40578;53.178;5.846;2023-04-03T10:22:44;6.40;99.90
54680;DHT22;40578;53.178;5.846;2023-04-03T10:27:46;6.60;99.90
54680;DHT22;40578;53.178;5.846;2023-04-03T10:35:25;6.80;99.90
54680;DHT22;40578;53.178;5.846;2023-04-03T10:38:01;6.90;99.90
54680;DHT22;40578;53.178;5.846;2023-04-03T10:40:39;6.80;99.90
54680;DHT22;40578;53.178;5.846;2023-04-03T10:48:17;7.00;99.90
54680;DHT22;40578;53.178;5.846;2023-04-03T10:56:16;7.10;99.90
54680;DHT22;40578;53.178;5.846;2023-04-03T10:58:44;7.10;99.90
54680;DHT22;40578;53.178;5.846;2023-04-03T11:01:20;7.20;99.90
54680;DHT22;40578;53.178;5.846;2023-04-03T11:03:48;7.20;99.90
54680;DHT22;40578;53.178;5.846;2023-04-03T11:06:15;8.50;99.90
54680;DHT22;40578;53.178;5.846;2023-04-03T11:11:17;7.30;99.90
54680;DHT22;40578;53.178;5.846;2023-04-03T11:13:52;7.70;99.90
54680;DHT22;40578;53.178;5.846;2023-04-03T11:16:22;7.50;99.90
54680;DHT22;40578;53.178;5.846;2023-04-03T11:18:49;7.60;99.90
54680;DHT22;40578;53.178;5.846;2023-04-03T11:21:22;7.60;99.90
54680;DHT22;40578;53.178;5.846;2023-04-03T11:23:51;7.60;99.90
54680;DHT22;40578;53.178;5.846;2023-04-03T11:26:19;7.70;99.90
54680;DHT22;40578;53.178;5.846;2023-04-03T11:28:46;9.70;99.90
54680;DHT22;40578;53.178;5.846;2023-04-03T11:31:29;7.80;99.90
54680;DHT22;40578;53.178;5.846;2023-04-03T11:34:03;7.80;99.90
54680;DHT22;40578;53.178;5.846;2023-04-03T11:36:38;8.00;99.90
54680;DHT22;40578;53.178;5.846;2023-04-03T11:41:40;7.90;99.90
54680;DHT22;40578;53.178;5.846;2023-04-03T11:44:13;8.90;99.90
54680;DHT22;40578;53.178;5.846;2023-04-03T11:46:55;7.90;99.90
54680;DHT22;40578;53.178;5.846;2023-04-03T11:52:09;8.10;99.90
54680;DHT22;40578;53.178;5.846;2023-04-03T11:59:50;8.20;99.90
54680;DHT22;40578;53.178;5.846;2023-04-03T12:02:34;9.70;99.90
54680;DHT22;40578;53.178;5.846;2023-04-03T12:07:56;8.30;99.90
54680;DHT22;40578;53.178;5.846;2023-04-03T12:10:30;8.30;99.90
54680;DHT22;40578;53.178;5.846;2023-04-03T12:12:56;8.30;99.90
54680;DHT22;40578;53.178;5.846;2023-04-03T12:15:26;8.40;99.90
54680;DHT22;40578;53.178;5.846;2023-04-03T12:17:52;8.60;99.90
54680;DHT22;40578;53.178;5.846;2023-04-03T12:25:48;8.50;99.90
54680;DHT22;40578;53.178;5.846;2023-04-03T12:28:15;8.50;99.90
54680;DHT22;40578;53.178;5.846;2023-04-03T12:30:40;8.60;99.90
54680;DHT22;40578;53.178;5.846;2023-04-03T12:46:19;8.70;99.90
54680;DHT22;40578;53.178;5.846;2023-04-03T12:48:52;8.70;99.90
54680;DHT22;40578;53.178;5.846;2023-04-03T12:51:34;8.70;99.90
54680;DHT22;40578;53.178;5.846;2023-04-03T12:54:04;8.70;99.90
54680;DHT22;40578;53.178;5.846;2023-04-03T12:56:38;8.70;99.90
54680;DHT22;40578;53.178;5.846;2023-04-03T12:59:18;8.80;99.90
54680;DHT22;40578;53.178;5.846;2023-04-03T13:01:44;8.80;99.90
54680;DHT22;40578;53.178;5.846;2023-04-03T13:04:17;8.80;99.90
54680;DHT22;40578;53.178;5.846;2023-04-03T13:06:43;8.90;99.90
54680;DHT22;40578;53.178;5.846;2023-04-03T13:09:25;9.00;99.90
54680;DHT22;40578;53.178;5.846;2023-04-03T13:12:03;9.00;99.90
54680;DHT22;40578;53.178;5.846;2023-04-03T13:14:34;9.00;99.90
54680;DHT22;40578;53.178;5.846;2023-04-03T13:17:03;9.00;99.90
54680;DHT22;40578;53.178;5.846;2023-04-03T13:19:29;10.70;99.90
54680;DHT22;40578;53.178;5.846;2023-04-03T13:22:02;10.20;99.90
54680;DHT22;40578;53.178;5.846;2023-04-03T13:24:30;9.00;99.90
54680;DHT22;40578;53.178;5.846;2023-04-03T13:26:56;9.00;99.90
54680;DHT22;40578;53.178;5.846;2023-04-03T13:29:26;9.10;99.90
54680;DHT22;40578;53.178;5.846;2023-04-03T13:31:53;9.10;99.90
54680;DHT22;40578;53.178;5.846;2023-04-03T13:34:21;9.00;99.90
54680;DHT22;40578;53.178;5.846;2023-04-03T13:39:22;9.00;99.90
54680;DHT22;40578;53.178;5.846;2023-04-03T13:41:51;9.00;99.90
54680;DHT22;40578;53.178;5.846;2023-04-03T13:44:28;10.10;99.90
54680;DHT22;40578;53.178;5.846;2023-04-03T13:51:51;9.20;99.90
54680;DHT22;40578;53.178;5.846;2023-04-03T13:54:22;9.30;99.90
54680;DHT22;40578;53.178;5.846;2023-04-03T13:56:52;9.30;99.90
54680;DHT22;40578;53.178;5.846;2023-04-03T14:04:21;9.30;99.90
54680;DHT22;40578;53.178;5.846;2023-04-03T14:06:47;9.30;99.90
54680;DHT22;40578;53.178;5.846;2023-04-03T14:09:13;9.30;99.90
54680;DHT22;40578;53.178;5.846;2023-04-03T14:11:39;10.40;99.90
54680;DHT22;40578;53.178;5.846;2023-04-03T14:14:09;9.20;99.90
54680;DHT22;40578;53.178;5.846;2023-04-03T14:16:37;9.30;99.90
54680;DHT22;40578;53.178;5.846;2023-04-03T14:19:03;9.30;99.90
54680;DHT22;40578;53.178;5.846;2023-04-03T14:21:28;9.30;99.90
54680;DHT22;40578;53.178;5.846;2023-04-03T14:23:54;9.30;99.90
54680;DHT22;40578;53.178;5.846;2023-04-03T14:26:21;9.60;99.90
54680;DHT22;40578;53.178;5.846;2023-04-03T14:28:48;10.50;99.90
54680;DHT22;40578;53.178;5.846;2023-04-03T14:31:14;9.30;99.90
54680;DHT22;40578;53.178;5.846;2023-04-03T14:33:41;9.30;99.90
54680;DHT22;40578;53.178;5.846;2023-04-03T14:36:13;9.20;99.90
54680;DHT22;40578;53.178;5.846;2023-04-03T14:38:40;9.20;99.90
54680;DHT22;40578;53.178;5.846;2023-04-03T14:41:06;9.20;99.90
54680;DHT22;40578;53.178;5.846;2023-04-03T14:43:32;10.40;99.90
54680;DHT22;40578;53.178;5.846;2023-04-03T14:45:57;9.20;99.90
54680;DHT22;40578;53.178;5.846;2023-04-03T14:48:24;9.10;99.90
54680;DHT22;40578;53.178;5.846;2023-04-03T14:50:51;10.10;99.90
54680;DHT22;40578;53.178;5.846;2023-04-03T14:53:17;9.10;99.90
54680;DHT22;40578;53.178;5.846;2023-04-03T14:55:44;9.20;99.90
54680;DHT22;40578;53.178;5.846;2023-04-03T14:58:17;9.30;99.90
54680;DHT22;40578;53.178;5.846;2023-04-03T15:00:43;9.30;99.90
54680;DHT22;40578;53.178;5.846;2023-04-03T15:03:14;9.30;99.90
54680;DHT22;40578;53.178;5.846;2023-04-03T15:05:40;9.30;99.90
54680;DHT22;40578;53.178;5.846;2023-04-03T15:08:08;9.20;99.90
54680;DHT22;40578;53.178;5.846;2023-04-03T15:10:38;9.20;99.90
54680;DHT22;40578;53.178;5.846;2023-04-03T15:13:04;11.00;99.90
54680;DHT22;40578;53.178;5.846;2023-04-03T15:15:29;9.40;99.90
54680;DHT22;40578;53.178;5.846;2023-04-03T15:17:55;11.90;99.90
54680;DHT22;40578;53.178;5.846;2023-04-03T15:20:25;9.50;99.90
54680;DHT22;40578;53.178;5.846;2023-04-03T15:22:51;9.40;99.90
54680;DHT22;40578;53.178;5.846;2023-04-03T15:25:17;9.70;99.90
54680;DHT22;40578;53.178;5.846;2023-04-03T15:27:43;9.30;99.90
54680;DHT22;40578;53.178;5.846;2023-04-03T15:30:11;8.70;99.90
54680;DHT22;40578;53.178;5.846;2023-04-03T15:32:38;9.30;99.90
54680;DHT22;40578;53.178;5.846;2023-04-03T15:35:03;9.20;99.90
54680;DHT22;40578;53.178;5.846;2023-04-03T15:37:29;9.20;99.90
54680;DHT22;40578;53.178;5.846;2023-04-03T15:39:55;9.20;99.90
54680;DHT22;40578;53.178;5.846;2023-04-03T15:42:20;10.80;99.90
54680;DHT22;40578;53.178;5.846;2023-04-03T15:44:46;9.20;99.90
54680;DHT22;40578;53.178;5.846;2023-04-03T15:47:11;9.10;99.90
54680;DHT22;40578;53.178;5.846;2023-04-03T15:49:37;10.10;99.90
54680;DHT22;40578;53.178;5.846;2023-04-03T15:52:03;10.10;99.90
54680;DHT22;40578;53.178;5.846;2023-04-03T15:54:28;8.90;99.90
54680;DHT22;40578;53.178;5.846;2023-04-03T15:56:55;10.90;99.90
54680;DHT22;40578;53.178;5.846;2023-04-03T15:59:21;8.90;99.90
54680;DHT22;40578;53.178;5.846;2023-04-03T16:01:47;9.90;99.90
54680;DHT22;40578;53.178;5.846;2023-04-03T16:04:12;9.00;99.90
54680;DHT22;40578;53.178;5.846;2023-04-03T16:06:38;10.10;99.90
54680;DHT22;40578;53.178;5.846;2023-04-03T16:09:04;8.80;99.90
54680;DHT22;40578;53.178;5.846;2023-04-03T16:11:30;9.60;99.90
54680;DHT22;40578;53.178;5.846;2023-04-03T16:13:56;8.80;99.90
54680;DHT22;40578;53.178;5.846;2023-04-03T16:16:22;9.50;99.90
54680;DHT22;40578;53.178;5.846;2023-04-03T16:18:48;8.70;99.90
54680;DHT22;40578;53.178;5.846;2023-04-03T16:21:14;8.60;99.90
54680;DHT22;40578;53.178;5.846;2023-04-03T16:23:40;10.10;99.90
54680;DHT22;40578;53.178;5.846;2023-04-03T16:26:06;11.20;99.90
54680;DHT22;40578;53.178;5.846;2023-04-03T16:28:32;8.30;99.90
54680;DHT22;40578;53.178;5.846;2023-04-03T16:30:57;8.80;99.90
54680;DHT22;40578;53.178;5.846;2023-04-03T16:33:24;10.40;99.90
54680;DHT22;40578;53.178;5.846;2023-04-03T16:35:51;8.30;99.90
54680;DHT22;40578;53.178;5.846;2023-04-03T16:38:17;8.10;99.90
54680;DHT22;40578;53.178;5.846;2023-04-03T16:40:44;8.10;99.90
54680;DHT22;40578;53.178;5.846;2023-04-03T16:43:10;8.10;99.90
54680;DHT22;40578;53.178;5.846;2023-04-03T16:45:35;8.30;99.90
54680;DHT22;40578;53.178;5.846;2023-04-03T16:48:01;9.60;99.90
54680;DHT22;40578;53.178;5.846;2023-04-03T16:50:27;9.20;99.90
54680;DHT22;40578;53.178;5.846;2023-04-03T16:52:53;8.30;99.90
54680;DHT22;40578;53.178;5.846;2023-04-03T16:55:18;8.40;99.90
54680;DHT22;40578;53.178;5.846;2023-04-03T16:57:44;9.40;99.90
54680;DHT22;40578;53.178;5.846;2023-04-03T17:00:09;8.40;99.90
54680;DHT22;40578;53.178;5.846;2023-04-03T17:02:35;8.40;99.90
54680;DHT22;40578;53.178;5.846;2023-04-03T17:05:01;8.20;99.90
54680;DHT22;40578;53.178;5.846;2023-04-03T17:07:26;8.10;99.90
54680;DHT22;40578;53.178;5.846;2023-04-03T17:09:52;10.40;99.90
54680;DHT22;40578;53.178;5.846;2023-04-03T17:12:19;8.00;99.90
54680;DHT22;40578;53.178;5.846;2023-04-03T17:14:44;8.00;99.90
54680;DHT22;40578;53.178;5.846;2023-04-03T17:17:12;8.00;99.90